sensor_id;sensor_type;location;lat;lon;timestamp;P1;durP1;ratioP1;P2;durP2;ratioP2
75526;SDS011;64107;49.248;7.006;2024-01-16T00:01:32;1.73;;;1.20;;
75526;SDS011;64107;49.248;7.006;2024-01-16T00:03:59;2.05;;;1.10;;
75526;SDS011;64107;49.248;7.006;2024-01-16T00:06:25;1.10;;;1.10;;
75526;SDS011;64107;49.248;7.006;2024-01-16T00:11:17;8.15;;;0.93;;
75526;SDS011;64107;49.248;7.006;2024-01-16T00:13:43;0.68;;;0.47;;
75526;SDS011;64107;49.248;7.006;2024-01-16T00:16:09;3.30;;;2.13;;
75526;SDS011;64107;49.248;7.006;2024-01-16T00:18:35;0.40;;;0.32;;
75526;SDS011;64107;49.248;7.006;2024-01-16T00:21:01;4.68;;;2.50;;
75526;SDS011;64107;49.248;7.006;2024-01-16T00:23:27;1.85;;;1.00;;
75526;SDS011;64107;49.248;7.006;2024-01-16T00:25:56;1.55;;;1.00;;
75526;SDS011;64107;49.248;7.006;2024-01-16T00:28:22;2.28;;;1.15;;
75526;SDS011;64107;49.248;7.006;2024-01-16T00:30:48;2.33;;;0.70;;
75526;SDS011;64107;49.248;7.006;2024-01-16T00:33:14;1.33;;;1.13;;
75526;SDS011;64107;49.248;7.006;2024-01-16T00:35:40;0.60;;;0.47;;
75526;SDS011;64107;49.248;7.006;2024-01-16T00:38:06;0.95;;;0.93;;
75526;SDS011;64107;49.248;7.006;2024-01-16T00:40:32;1.13;;;1.02;;
75526;SDS011;64107;49.248;7.006;2024-01-16T00:42:58;0.85;;;0.85;;
75526;SDS011;64107;49.248;7.006;2024-01-16T00:45:24;1.20;;;0.50;;
75526;SDS011;64107;49.248;7.006;2024-01-16T00:47:49;0.73;;;0.57;;
75526;SDS011;64107;49.248;7.006;2024-01-16T00:50:15;1.75;;;1.50;;
75526;SDS011;64107;49.248;7.006;2024-01-16T00:52:41;0.73;;;0.73;;
75526;SDS011;64107;49.248;7.006;2024-01-16T00:55:07;1.55;;;1.45;;
75526;SDS011;64107;49.248;7.006;2024-01-16T00:57:33;0.90;;;0.88;;
75526;SDS011;64107;49.248;7.006;2024-01-16T00:59:59;1.35;;;0.43;;
75526;SDS011;64107;49.248;7.006;2024-01-16T01:02:26;3.65;;;0.70;;
75526;SDS011;64107;49.248;7.006;2024-01-16T01:04:52;2.22;;;0.77;;
75526;SDS011;64107;49.248;7.006;2024-01-16T01:07:17;3.33;;;1.02;;
75526;SDS011;64107;49.248;7.006;2024-01-16T01:09:43;2.33;;;1.05;;
75526;SDS011;64107;49.248;7.006;2024-01-16T01:12:09;2.13;;;1.45;;
75526;SDS011;64107;49.248;7.006;2024-01-16T01:14:35;2.15;;;1.55;;
75526;SDS011;64107;49.248;7.006;2024-01-16T01:17:01;0.80;;;0.65;;
75526;SDS011;64107;49.248;7.006;2024-01-16T01:19:27;1.35;;;0.68;;
75526;SDS011;64107;49.248;7.006;2024-01-16T01:21:53;3.97;;;1.85;;
75526;SDS011;64107;49.248;7.006;2024-01-16T01:24:19;2.50;;;0.55;;
75526;SDS011;64107;49.248;7.006;2024-01-16T01:26:45;0.57;;;0.55;;
75526;SDS011;64107;49.248;7.006;2024-01-16T01:29:11;0.93;;;0.60;;
75526;SDS011;64107;49.248;7.006;2024-01-16T01:31:37;0.85;;;0.68;;
75526;SDS011;64107;49.248;7.006;2024-01-16T01:34:03;6.85;;;1.70;;
75526;SDS011;64107;49.248;7.006;2024-01-16T01:36:29;1.40;;;1.23;;
75526;SDS011;64107;49.248;7.006;2024-01-16T01:38:55;3.55;;;1.10;;
75526;SDS011;64107;49.248;7.006;2024-01-16T01:41:21;0.80;;;0.75;;
75526;SDS011;64107;49.248;7.006;2024-01-16T01:43:47;1.00;;;0.82;;
75526;SDS011;64107;49.248;7.006;2024-01-16T01:46:14;0.30;;;0.30;;
75526;SDS011;64107;49.248;7.006;2024-01-16T01:48:42;1.77;;;0.98;;
75526;SDS011;64107;49.248;7.006;2024-01-16T01:51:08;0.20;;;0.20;;
75526;SDS011;64107;49.248;7.006;2024-01-16T01:53:34;2.30;;;1.30;;
75526;SDS011;64107;49.248;7.006;2024-01-16T01:56:04;0.88;;;0.47;;
75526;SDS011;64107;49.248;7.006;2024-01-16T01:58:33;0.40;;;0.40;;
75526;SDS011;64107;49.248;7.006;2024-01-16T02:01:00;4.03;;;0.68;;
75526;SDS011;64107;49.248;7.006;2024-01-16T02:03:27;1.40;;;1.27;;
75526;SDS011;64107;49.248;7.006;2024-01-16T02:05:54;1.73;;;0.47;;
75526;SDS011;64107;49.248;7.006;2024-01-16T02:10:47;7.60;;;1.58;;
75526;SDS011;64107;49.248;7.006;2024-01-16T02:13:13;3.28;;;1.92;;
75526;SDS011;64107;49.248;7.006;2024-01-16T02:15:39;0.15;;;0.15;;
75526;SDS011;64107;49.248;7.006;2024-01-16T02:18:06;0.68;;;0.68;;
75526;SDS011;64107;49.248;7.006;2024-01-16T02:20:32;3.65;;;1.95;;
75526;SDS011;64107;49.248;7.006;2024-01-16T02:23:00;2.42;;;2.03;;
75526;SDS011;64107;49.248;7.006;2024-01-16T02:25:26;1.70;;;1.00;;
75526;SDS011;64107;49.248;7.006;2024-01-16T02:27:52;0.10;;;0.10;;
75526;SDS011;64107;49.248;7.006;2024-01-16T02:30:18;0.82;;;0.82;;
75526;SDS011;64107;49.248;7.006;2024-01-16T02:32:44;1.88;;;1.10;;
75526;SDS011;64107;49.248;7.006;2024-01-16T02:35:09;6.70;;;4.05;;
75526;SDS011;64107;49.248;7.006;2024-01-16T02:37:35;2.65;;;2.03;;
75526;SDS011;64107;49.248;7.006;2024-01-16T02:40:02;0.68;;;0.63;;
75526;SDS011;64107;49.248;7.006;2024-01-16T02:42:31;2.25;;;1.88;;
75526;SDS011;64107;49.248;7.006;2024-01-16T02:44:57;4.25;;;3.00;;
75526;SDS011;64107;49.248;7.006;2024-01-16T02:47:23;1.98;;;0.60;;
75526;SDS011;64107;49.248;7.006;2024-01-16T02:49:49;1.20;;;0.57;;
75526;SDS011;64107;49.248;7.006;2024-01-16T02:52:15;2.63;;;2.03;;
75526;SDS011;64107;49.248;7.006;2024-01-16T02:54:41;1.58;;;1.48;;
75526;SDS011;64107;49.248;7.006;2024-01-16T02:57:07;0.40;;;0.40;;
75526;SDS011;64107;49.248;7.006;2024-01-16T02:59:33;4.22;;;1.67;;
75526;SDS011;64107;49.248;7.006;2024-01-16T03:01:59;1.60;;;1.33;;
75526;SDS011;64107;49.248;7.006;2024-01-16T03:04:25;2.60;;;1.67;;
75526;SDS011;64107;49.248;7.006;2024-01-16T03:06:51;1.73;;;1.20;;
75526;SDS011;64107;49.248;7.006;2024-01-16T03:09:17;2.35;;;1.30;;
75526;SDS011;64107;49.248;7.006;2024-01-16T03:11:43;1.27;;;0.98;;
75526;SDS011;64107;49.248;7.006;2024-01-16T03:14:09;9.45;;;2.38;;
75526;SDS011;64107;49.248;7.006;2024-01-16T03:16:35;2.40;;;2.10;;
75526;SDS011;64107;49.248;7.006;2024-01-16T03:19:01;2.63;;;1.30;;
75526;SDS011;64107;49.248;7.006;2024-01-16T03:21:27;1.70;;;1.10;;
75526;SDS011;64107;49.248;7.006;2024-01-16T03:23:53;1.55;;;1.17;;
75526;SDS011;64107;49.248;7.006;2024-01-16T03:26:19;0.95;;;0.88;;
75526;SDS011;64107;49.248;7.006;2024-01-16T03:28:45;3.60;;;1.00;;
75526;SDS011;64107;49.248;7.006;2024-01-16T03:31:14;4.57;;;2.08;;
75526;SDS011;64107;49.248;7.006;2024-01-16T03:33:40;3.92;;;1.15;;
75526;SDS011;64107;49.248;7.006;2024-01-16T03:36:09;1.33;;;1.23;;
75526;SDS011;64107;49.248;7.006;2024-01-16T03:38:35;1.88;;;0.50;;
75526;SDS011;64107;49.248;7.006;2024-01-16T03:43:28;1.20;;;1.10;;
75526;SDS011;64107;49.248;7.006;2024-01-16T03:45:56;9.80;;;0.93;;
75526;SDS011;64107;49.248;7.006;2024-01-16T03:48:22;2.72;;;1.05;;
75526;SDS011;64107;49.248;7.006;2024-01-16T03:50:48;0.90;;;0.73;;
75526;SDS011;64107;49.248;7.006;2024-01-16T03:53:14;6.28;;;2.13;;
75526;SDS011;64107;49.248;7.006;2024-01-16T03:55:40;3.38;;;2.00;;
75526;SDS011;64107;49.248;7.006;2024-01-16T03:58:06;1.05;;;1.00;;
75526;SDS011;64107;49.248;7.006;2024-01-16T04:00:32;1.27;;;1.00;;
75526;SDS011;64107;49.248;7.006;2024-01-16T04:02:58;8.45;;;1.85;;
75526;SDS011;64107;49.248;7.006;2024-01-16T04:05:24;3.00;;;1.38;;
75526;SDS011;64107;49.248;7.006;2024-01-16T04:07:50;1.85;;;0.70;;
75526;SDS011;64107;49.248;7.006;2024-01-16T04:10:17;2.47;;;0.80;;
75526;SDS011;64107;49.248;7.006;2024-01-16T04:12:43;0.70;;;0.70;;
75526;SDS011;64107;49.248;7.006;2024-01-16T04:15:09;3.33;;;2.10;;
75526;SDS011;64107;49.248;7.006;2024-01-16T04:17:35;0.43;;;0.32;;
75526;SDS011;64107;49.248;7.006;2024-01-16T04:20:01;6.45;;;2.05;;
75526;SDS011;64107;49.248;7.006;2024-01-16T04:22:27;3.45;;;2.00;;
75526;SDS011;64107;49.248;7.006;2024-01-16T04:24:53;5.07;;;2.28;;
75526;SDS011;64107;49.248;7.006;2024-01-16T04:27:19;2.92;;;1.65;;
75526;SDS011;64107;49.248;7.006;2024-01-16T04:29:45;5.50;;;3.47;;
75526;SDS011;64107;49.248;7.006;2024-01-16T04:32:11;9.90;;;2.33;;
75526;SDS011;64107;49.248;7.006;2024-01-16T04:34:37;5.63;;;2.08;;
75526;SDS011;64107;49.248;7.006;2024-01-16T04:37:03;2.53;;;1.83;;
75526;SDS011;64107;49.248;7.006;2024-01-16T04:39:28;2.85;;;1.50;;
75526;SDS011;64107;49.248;7.006;2024-01-16T04:41:54;5.53;;;2.67;;
75526;SDS011;64107;49.248;7.006;2024-01-16T04:44:20;8.68;;;3.88;;
75526;SDS011;64107;49.248;7.006;2024-01-16T04:46:46;7.38;;;2.67;;
75526;SDS011;64107;49.248;7.006;2024-01-16T04:49:12;5.60;;;2.60;;
75526;SDS011;64107;49.248;7.006;2024-01-16T04:51:38;7.10;;;2.72;;
75526;SDS011;64107;49.248;7.006;2024-01-16T04:54:04;4.90;;;2.90;;
75526;SDS011;64107;49.248;7.006;2024-01-16T04:56:30;4.60;;;3.00;;
75526;SDS011;64107;49.248;7.006;2024-01-16T04:58:56;5.55;;;2.55;;
75526;SDS011;64107;49.248;7.006;2024-01-16T05:01:22;7.88;;;2.90;;
75526;SDS011;64107;49.248;7.006;2024-01-16T05:03:48;11.85;;;3.70;;
75526;SDS011;64107;49.248;7.006;2024-01-16T05:06:14;7.55;;;3.78;;
75526;SDS011;64107;49.248;7.006;2024-01-16T05:11:06;3.58;;;2.67;;
75526;SDS011;64107;49.248;7.006;2024-01-16T05:13:32;3.72;;;1.95;;
75526;SDS011;64107;49.248;7.006;2024-01-16T05:15:58;8.93;;;4.20;;
75526;SDS011;64107;49.248;7.006;2024-01-16T05:18:24;5.47;;;3.35;;
75526;SDS011;64107;49.248;7.006;2024-01-16T05:20:50;5.95;;;3.25;;
75526;SDS011;64107;49.248;7.006;2024-01-16T05:23:16;7.80;;;4.22;;
75526;SDS011;64107;49.248;7.006;2024-01-16T05:28:08;9.68;;;4.13;;
75526;SDS011;64107;49.248;7.006;2024-01-16T05:30:35;6.75;;;3.22;;
75526;SDS011;64107;49.248;7.006;2024-01-16T05:33:01;7.57;;;4.45;;
75526;SDS011;64107;49.248;7.006;2024-01-16T05:35:28;8.77;;;4.65;;
75526;SDS011;64107;49.248;7.006;2024-01-16T05:37:54;10.57;;;4.25;;
75526;SDS011;64107;49.248;7.006;2024-01-16T05:40:24;11.77;;;3.90;;
75526;SDS011;64107;49.248;7.006;2024-01-16T05:42:50;4.47;;;2.40;;
75526;SDS011;64107;49.248;7.006;2024-01-16T05:45:16;10.48;;;4.57;;
75526;SDS011;64107;49.248;7.006;2024-01-16T05:47:42;9.60;;;4.22;;
75526;SDS011;64107;49.248;7.006;2024-01-16T05:50:08;7.05;;;3.55;;
75526;SDS011;64107;49.248;7.006;2024-01-16T05:52:34;9.25;;;3.72;;
75526;SDS011;64107;49.248;7.006;2024-01-16T05:55:00;12.85;;;6.03;;
75526;SDS011;64107;49.248;7.006;2024-01-16T05:57:27;8.43;;;4.45;;
75526;SDS011;64107;49.248;7.006;2024-01-16T05:59:53;8.15;;;3.80;;
75526;SDS011;64107;49.248;7.006;2024-01-16T06:04:46;10.13;;;5.55;;
75526;SDS011;64107;49.248;7.006;2024-01-16T06:07:12;7.68;;;4.45;;
75526;SDS011;64107;49.248;7.006;2024-01-16T06:09:38;13.13;;;6.30;;
75526;SDS011;64107;49.248;7.006;2024-01-16T06:12:05;9.18;;;5.18;;
75526;SDS011;64107;49.248;7.006;2024-01-16T06:14:32;12.10;;;6.03;;
75526;SDS011;64107;49.248;7.006;2024-01-16T06:16:58;11.40;;;5.68;;
75526;SDS011;64107;49.248;7.006;2024-01-16T06:19:24;7.15;;;4.45;;
75526;SDS011;64107;49.248;7.006;2024-01-16T06:21:49;14.98;;;7.78;;
75526;SDS011;64107;49.248;7.006;2024-01-16T06:24:15;12.38;;;6.18;;
75526;SDS011;64107;49.248;7.006;2024-01-16T06:26:41;6.63;;;3.83;;
75526;SDS011;64107;49.248;7.006;2024-01-16T06:29:08;15.70;;;6.90;;
75526;SDS011;64107;49.248;7.006;2024-01-16T06:31:34;10.88;;;6.10;;
75526;SDS011;64107;49.248;7.006;2024-01-16T06:34:00;15.55;;;7.05;;
75526;SDS011;64107;49.248;7.006;2024-01-16T06:36:26;17.38;;;7.82;;
75526;SDS011;64107;49.248;7.006;2024-01-16T06:38:52;14.05;;;7.57;;
75526;SDS011;64107;49.248;7.006;2024-01-16T06:41:18;10.07;;;5.63;;
75526;SDS011;64107;49.248;7.006;2024-01-16T06:43:44;16.08;;;8.95;;
75526;SDS011;64107;49.248;7.006;2024-01-16T06:46:10;7.85;;;4.82;;
75526;SDS011;64107;49.248;7.006;2024-01-16T06:48:36;12.45;;;6.28;;
75526;SDS011;64107;49.248;7.006;2024-01-16T06:53:29;11.35;;;5.95;;
75526;SDS011;64107;49.248;7.006;2024-01-16T06:55:54;17.13;;;7.65;;
75526;SDS011;64107;49.248;7.006;2024-01-16T06:58:20;14.93;;;7.50;;
75526;SDS011;64107;49.248;7.006;2024-01-16T07:00:47;13.07;;;7.07;;
75526;SDS011;64107;49.248;7.006;2024-01-16T07:03:13;18.52;;;6.10;;
75526;SDS011;64107;49.248;7.006;2024-01-16T07:05:39;13.18;;;6.07;;
75526;SDS011;64107;49.248;7.006;2024-01-16T07:08:08;15.40;;;8.27;;
75526;SDS011;64107;49.248;7.006;2024-01-16T07:10:34;18.63;;;7.60;;
75526;SDS011;64107;49.248;7.006;2024-01-16T07:13:01;16.98;;;8.30;;
75526;SDS011;64107;49.248;7.006;2024-01-16T07:15:27;18.48;;;8.52;;
75526;SDS011;64107;49.248;7.006;2024-01-16T07:17:53;14.05;;;6.68;;
75526;SDS011;64107;49.248;7.006;2024-01-16T07:20:19;10.48;;;6.88;;
75526;SDS011;64107;49.248;7.006;2024-01-16T07:22:45;10.85;;;5.07;;
75526;SDS011;64107;49.248;7.006;2024-01-16T07:25:11;16.10;;;7.70;;
75526;SDS011;64107;49.248;7.006;2024-01-16T07:27:37;13.52;;;6.55;;
75526;SDS011;64107;49.248;7.006;2024-01-16T07:30:06;18.85;;;7.13;;
75526;SDS011;64107;49.248;7.006;2024-01-16T07:32:33;19.35;;;8.50;;
75526;SDS011;64107;49.248;7.006;2024-01-16T07:34:59;17.85;;;7.30;;
75526;SDS011;64107;49.248;7.006;2024-01-16T07:37:25;8.18;;;4.72;;
75526;SDS011;64107;49.248;7.006;2024-01-16T07:39:51;21.02;;;10.77;;
75526;SDS011;64107;49.248;7.006;2024-01-16T07:42:17;20.55;;;9.63;;
75526;SDS011;64107;49.248;7.006;2024-01-16T07:44:43;22.00;;;9.68;;
75526;SDS011;64107;49.248;7.006;2024-01-16T07:47:09;21.15;;;9.98;;
75526;SDS011;64107;49.248;7.006;2024-01-16T07:49:35;16.48;;;9.05;;
75526;SDS011;64107;49.248;7.006;2024-01-16T07:52:01;19.55;;;10.30;;
75526;SDS011;64107;49.248;7.006;2024-01-16T07:54:26;22.60;;;10.05;;
75526;SDS011;64107;49.248;7.006;2024-01-16T07:56:52;19.35;;;8.48;;
75526;SDS011;64107;49.248;7.006;2024-01-16T07:59:18;18.08;;;9.55;;
75526;SDS011;64107;49.248;7.006;2024-01-16T08:01:44;20.15;;;9.38;;
75526;SDS011;64107;49.248;7.006;2024-01-16T08:04:11;21.00;;;8.82;;
75526;SDS011;64107;49.248;7.006;2024-01-16T08:06:37;21.73;;;9.20;;
75526;SDS011;64107;49.248;7.006;2024-01-16T08:09:02;26.48;;;11.75;;
75526;SDS011;64107;49.248;7.006;2024-01-16T08:11:28;20.75;;;8.98;;
75526;SDS011;64107;49.248;7.006;2024-01-16T08:13:56;15.50;;;8.98;;
75526;SDS011;64107;49.248;7.006;2024-01-16T08:16:22;5.72;;;2.90;;
75526;SDS011;64107;49.248;7.006;2024-01-16T08:18:48;28.42;;;11.18;;
75526;SDS011;64107;49.248;7.006;2024-01-16T08:21:14;18.85;;;8.80;;
75526;SDS011;64107;49.248;7.006;2024-01-16T08:23:40;22.40;;;10.32;;
75526;SDS011;64107;49.248;7.006;2024-01-16T08:26:06;15.55;;;7.57;;
75526;SDS011;64107;49.248;7.006;2024-01-16T08:28:32;22.02;;;9.98;;
75526;SDS011;64107;49.248;7.006;2024-01-16T08:30:58;19.23;;;6.68;;
75526;SDS011;64107;49.248;7.006;2024-01-16T08:33:24;15.02;;;8.93;;
75526;SDS011;64107;49.248;7.006;2024-01-16T08:35:49;18.88;;;6.88;;
75526;SDS011;64107;49.248;7.006;2024-01-16T08:38:15;11.77;;;5.40;;
75526;SDS011;64107;49.248;7.006;2024-01-16T08:40:41;20.05;;;8.63;;
75526;SDS011;64107;49.248;7.006;2024-01-16T08:43:07;22.75;;;9.90;;
75526;SDS011;64107;49.248;7.006;2024-01-16T08:45:33;19.88;;;8.75;;
75526;SDS011;64107;49.248;7.006;2024-01-16T08:47:59;18.83;;;8.82;;
75526;SDS011;64107;49.248;7.006;2024-01-16T08:50:25;13.43;;;6.40;;
75526;SDS011;64107;49.248;7.006;2024-01-16T08:52:51;15.13;;;7.05;;
75526;SDS011;64107;49.248;7.006;2024-01-16T08:55:17;19.98;;;9.07;;
75526;SDS011;64107;49.248;7.006;2024-01-16T08:57:43;21.00;;;10.07;;
75526;SDS011;64107;49.248;7.006;2024-01-16T09:00:09;22.45;;;10.30;;
75526;SDS011;64107;49.248;7.006;2024-01-16T09:02:35;21.67;;;11.00;;
75526;SDS011;64107;49.248;7.006;2024-01-16T09:05:01;22.00;;;9.70;;
75526;SDS011;64107;49.248;7.006;2024-01-16T09:07:27;17.55;;;7.78;;
75526;SDS011;64107;49.248;7.006;2024-01-16T09:09:53;20.00;;;8.52;;
75526;SDS011;64107;49.248;7.006;2024-01-16T09:12:20;23.80;;;10.70;;
75526;SDS011;64107;49.248;7.006;2024-01-16T09:14:45;21.42;;;8.85;;
75526;SDS011;64107;49.248;7.006;2024-01-16T09:17:11;12.48;;;6.13;;
75526;SDS011;64107;49.248;7.006;2024-01-16T09:19:37;17.50;;;8.82;;
75526;SDS011;64107;49.248;7.006;2024-01-16T09:22:03;13.93;;;7.85;;
75526;SDS011;64107;49.248;7.006;2024-01-16T09:24:30;20.88;;;9.90;;
75526;SDS011;64107;49.248;7.006;2024-01-16T09:26:56;14.88;;;5.20;;
75526;SDS011;64107;49.248;7.006;2024-01-16T09:29:23;18.63;;;8.68;;
75526;SDS011;64107;49.248;7.006;2024-01-16T09:31:49;16.10;;;8.13;;
75526;SDS011;64107;49.248;7.006;2024-01-16T09:34:15;20.00;;;9.10;;
75526;SDS011;64107;49.248;7.006;2024-01-16T09:39:08;21.25;;;7.40;;
75526;SDS011;64107;49.248;7.006;2024-01-16T09:41:35;17.45;;;7.82;;
75526;SDS011;64107;49.248;7.006;2024-01-16T09:44:01;18.10;;;9.80;;
75526;SDS011;64107;49.248;7.006;2024-01-16T09:46:28;16.92;;;8.05;;
75526;SDS011;64107;49.248;7.006;2024-01-16T09:48:56;21.67;;;9.93;;
75526;SDS011;64107;49.248;7.006;2024-01-16T09:51:22;11.23;;;6.25;;
75526;SDS011;64107;49.248;7.006;2024-01-16T09:53:48;21.15;;;8.75;;
75526;SDS011;64107;49.248;7.006;2024-01-16T09:56:14;20.63;;;9.10;;
75526;SDS011;64107;49.248;7.006;2024-01-16T09:58:41;15.57;;;6.82;;
75526;SDS011;64107;49.248;7.006;2024-01-16T10:01:08;4.65;;;3.60;;
75526;SDS011;64107;49.248;7.006;2024-01-16T10:03:34;17.40;;;8.52;;
75526;SDS011;64107;49.248;7.006;2024-01-16T10:06:03;20.33;;;8.77;;
75526;SDS011;64107;49.248;7.006;2024-01-16T10:08:29;8.05;;;4.30;;
75526;SDS011;64107;49.248;7.006;2024-01-16T10:10:56;21.58;;;9.18;;
75526;SDS011;64107;49.248;7.006;2024-01-16T10:13:22;13.88;;;6.90;;
75526;SDS011;64107;49.248;7.006;2024-01-16T10:15:51;14.90;;;7.22;;
75526;SDS011;64107;49.248;7.006;2024-01-16T10:18:29;17.23;;;8.38;;
75526;SDS011;64107;49.248;7.006;2024-01-16T10:20:55;21.38;;;8.95;;
75526;SDS011;64107;49.248;7.006;2024-01-16T10:23:25;7.35;;;3.00;;
75526;SDS011;64107;49.248;7.006;2024-01-16T10:28:36;12.13;;;4.70;;
75526;SDS011;64107;49.248;7.006;2024-01-16T10:31:06;7.43;;;4.15;;
75526;SDS011;64107;49.248;7.006;2024-01-16T10:33:32;14.02;;;7.63;;
75526;SDS011;64107;49.248;7.006;2024-01-16T10:36:11;16.20;;;7.63;;
75526;SDS011;64107;49.248;7.006;2024-01-16T10:38:38;13.32;;;5.65;;
75526;SDS011;64107;49.248;7.006;2024-01-16T10:41:05;16.52;;;8.00;;
75526;SDS011;64107;49.248;7.006;2024-01-16T10:43:31;18.77;;;9.00;;
75526;SDS011;64107;49.248;7.006;2024-01-16T10:46:16;17.67;;;9.18;;
75526;SDS011;64107;49.248;7.006;2024-01-16T10:48:43;18.38;;;9.02;;
75526;SDS011;64107;49.248;7.006;2024-01-16T10:51:15;19.08;;;8.68;;
75526;SDS011;64107;49.248;7.006;2024-01-16T10:53:41;15.65;;;7.10;;
75526;SDS011;64107;49.248;7.006;2024-01-16T10:56:12;18.38;;;8.40;;
75526;SDS011;64107;49.248;7.006;2024-01-16T10:58:41;9.35;;;4.78;;
75526;SDS011;64107;49.248;7.006;2024-01-16T11:01:13;10.75;;;5.70;;
75526;SDS011;64107;49.248;7.006;2024-01-16T11:03:46;21.33;;;8.13;;
75526;SDS011;64107;49.248;7.006;2024-01-16T11:06:16;15.02;;;6.78;;
75526;SDS011;64107;49.248;7.006;2024-01-16T11:11:08;15.93;;;7.43;;
75526;SDS011;64107;49.248;7.006;2024-01-16T11:13:35;13.55;;;6.80;;
75526;SDS011;64107;49.248;7.006;2024-01-16T11:16:04;19.40;;;6.63;;
75526;SDS011;64107;49.248;7.006;2024-01-16T11:18:32;17.95;;;7.35;;
75526;SDS011;64107;49.248;7.006;2024-01-16T11:21:00;14.70;;;6.57;;
75526;SDS011;64107;49.248;7.006;2024-01-16T11:25:52;3.03;;;1.83;;
75526;SDS011;64107;49.248;7.006;2024-01-16T11:28:18;12.18;;;5.22;;
75526;SDS011;64107;49.248;7.006;2024-01-16T11:30:44;6.75;;;4.40;;
75526;SDS011;64107;49.248;7.006;2024-01-16T11:35:55;20.05;;;7.95;;
75526;SDS011;64107;49.248;7.006;2024-01-16T11:38:21;10.73;;;5.43;;
75526;SDS011;64107;49.248;7.006;2024-01-16T11:40:47;9.82;;;5.00;;
75526;SDS011;64107;49.248;7.006;2024-01-16T11:45:58;21.02;;;9.55;;
75526;SDS011;64107;49.248;7.006;2024-01-16T11:48:24;20.42;;;9.13;;
75526;SDS011;64107;49.248;7.006;2024-01-16T11:50:50;10.40;;;4.85;;
75526;SDS011;64107;49.248;7.006;2024-01-16T12:01:08;14.68;;;6.28;;
75526;SDS011;64107;49.248;7.006;2024-01-16T12:03:36;15.52;;;7.72;;
75526;SDS011;64107;49.248;7.006;2024-01-16T12:06:02;12.18;;;7.18;;
75526;SDS011;64107;49.248;7.006;2024-01-16T12:08:31;8.82;;;4.60;;
75526;SDS011;64107;49.248;7.006;2024-01-16T12:10:57;8.95;;;4.45;;
75526;SDS011;64107;49.248;7.006;2024-01-16T12:13:24;10.32;;;6.47;;
75526;SDS011;64107;49.248;7.006;2024-01-16T12:18:19;15.50;;;8.60;;
75526;SDS011;64107;49.248;7.006;2024-01-16T12:20:45;16.25;;;8.00;;
75526;SDS011;64107;49.248;7.006;2024-01-16T12:23:11;15.27;;;5.90;;
75526;SDS011;64107;49.248;7.006;2024-01-16T12:25:37;12.50;;;7.82;;
75526;SDS011;64107;49.248;7.006;2024-01-16T12:28:04;16.23;;;8.00;;
75526;SDS011;64107;49.248;7.006;2024-01-16T12:30:34;16.23;;;7.53;;
75526;SDS011;64107;49.248;7.006;2024-01-16T12:35:29;10.18;;;4.05;;
75526;SDS011;64107;49.248;7.006;2024-01-16T12:37:59;6.13;;;3.08;;
75526;SDS011;64107;49.248;7.006;2024-01-16T12:40:25;9.35;;;5.15;;
75526;SDS011;64107;49.248;7.006;2024-01-16T12:45:18;3.22;;;1.65;;
75526;SDS011;64107;49.248;7.006;2024-01-16T12:47:44;8.55;;;5.13;;
75526;SDS011;64107;49.248;7.006;2024-01-16T12:50:18;8.65;;;5.07;;
75526;SDS011;64107;49.248;7.006;2024-01-16T12:52:45;13.43;;;4.97;;
75526;SDS011;64107;49.248;7.006;2024-01-16T12:57:36;5.57;;;3.80;;
75526;SDS011;64107;49.248;7.006;2024-01-16T13:00:20;3.58;;;2.88;;
75526;SDS011;64107;49.248;7.006;2024-01-16T13:02:48;11.55;;;5.88;;
75526;SDS011;64107;49.248;7.006;2024-01-16T13:05:15;5.85;;;3.85;;
75526;SDS011;64107;49.248;7.006;2024-01-16T13:07:42;7.03;;;2.10;;
75526;SDS011;64107;49.248;7.006;2024-01-16T13:12:34;5.53;;;2.83;;
75526;SDS011;64107;49.248;7.006;2024-01-16T13:15:01;3.08;;;1.80;;
75526;SDS011;64107;49.248;7.006;2024-01-16T13:17:30;4.47;;;2.78;;
75526;SDS011;64107;49.248;7.006;2024-01-16T13:19:56;7.18;;;3.38;;
75526;SDS011;64107;49.248;7.006;2024-01-16T13:24:48;5.25;;;2.95;;
75526;SDS011;64107;49.248;7.006;2024-01-16T13:29:40;6.68;;;3.55;;
75526;SDS011;64107;49.248;7.006;2024-01-16T13:32:06;6.28;;;2.78;;
75526;SDS011;64107;49.248;7.006;2024-01-16T13:34:32;4.03;;;1.73;;
75526;SDS011;64107;49.248;7.006;2024-01-16T13:36:58;6.30;;;3.58;;
75526;SDS011;64107;49.248;7.006;2024-01-16T13:39:27;7.00;;;4.40;;
75526;SDS011;64107;49.248;7.006;2024-01-16T13:41:53;8.50;;;4.63;;
75526;SDS011;64107;49.248;7.006;2024-01-16T13:44:19;5.88;;;2.88;;
75526;SDS011;64107;49.248;7.006;2024-01-16T13:46:45;9.45;;;3.90;;
75526;SDS011;64107;49.248;7.006;2024-01-16T13:49:11;7.05;;;4.35;;
75526;SDS011;64107;49.248;7.006;2024-01-16T13:51:37;9.75;;;5.28;;
75526;SDS011;64107;49.248;7.006;2024-01-16T13:54:03;6.70;;;3.83;;
75526;SDS011;64107;49.248;7.006;2024-01-16T13:56:29;9.88;;;4.72;;
75526;SDS011;64107;49.248;7.006;2024-01-16T13:58:54;6.30;;;3.40;;
75526;SDS011;64107;49.248;7.006;2024-01-16T14:01:20;2.08;;;1.77;;
75526;SDS011;64107;49.248;7.006;2024-01-16T14:03:46;3.92;;;1.75;;
75526;SDS011;64107;49.248;7.006;2024-01-16T14:06:13;15.13;;;4.82;;
75526;SDS011;64107;49.248;7.006;2024-01-16T14:08:40;11.43;;;5.25;;
75526;SDS011;64107;49.248;7.006;2024-01-16T14:11:06;9.68;;;5.53;;
75526;SDS011;64107;49.248;7.006;2024-01-16T14:13:32;7.70;;;4.10;;
75526;SDS011;64107;49.248;7.006;2024-01-16T14:15:58;8.40;;;5.03;;
75526;SDS011;64107;49.248;7.006;2024-01-16T14:18:24;10.50;;;5.00;;
75526;SDS011;64107;49.248;7.006;2024-01-16T14:20:50;6.75;;;4.22;;
75526;SDS011;64107;49.248;7.006;2024-01-16T14:23:16;7.97;;;3.90;;
75526;SDS011;64107;49.248;7.006;2024-01-16T14:25:42;10.15;;;5.28;;
75526;SDS011;64107;49.248;7.006;2024-01-16T14:28:10;9.98;;;4.53;;
75526;SDS011;64107;49.248;7.006;2024-01-16T14:30:37;11.57;;;4.55;;
75526;SDS011;64107;49.248;7.006;2024-01-16T14:33:03;8.32;;;4.47;;
75526;SDS011;64107;49.248;7.006;2024-01-16T14:35:31;8.82;;;4.88;;
75526;SDS011;64107;49.248;7.006;2024-01-16T14:37:58;8.35;;;4.00;;
75526;SDS011;64107;49.248;7.006;2024-01-16T14:40:24;8.23;;;3.65;;
75526;SDS011;64107;49.248;7.006;2024-01-16T14:42:50;3.20;;;1.50;;
75526;SDS011;64107;49.248;7.006;2024-01-16T14:45:18;4.82;;;3.15;;
75526;SDS011;64107;49.248;7.006;2024-01-16T14:47:45;4.50;;;2.45;;
75526;SDS011;64107;49.248;7.006;2024-01-16T14:50:11;4.18;;;2.65;;
75526;SDS011;64107;49.248;7.006;2024-01-16T14:52:39;8.43;;;3.35;;
75526;SDS011;64107;49.248;7.006;2024-01-16T14:55:08;8.27;;;3.38;;
75526;SDS011;64107;49.248;7.006;2024-01-16T14:57:36;7.55;;;3.58;;
75526;SDS011;64107;49.248;7.006;2024-01-16T15:00:07;4.95;;;0.77;;
75526;SDS011;64107;49.248;7.006;2024-01-16T15:02:48;5.07;;;3.20;;
75526;SDS011;64107;49.248;7.006;2024-01-16T15:05:17;5.72;;;2.83;;
75526;SDS011;64107;49.248;7.006;2024-01-16T15:10:12;7.07;;;2.28;;
75526;SDS011;64107;49.248;7.006;2024-01-16T15:12:40;4.35;;;2.67;;
75526;SDS011;64107;49.248;7.006;2024-01-16T15:15:07;2.95;;;2.35;;
75526;SDS011;64107;49.248;7.006;2024-01-16T15:17:34;7.35;;;2.15;;
75526;SDS011;64107;49.248;7.006;2024-01-16T15:20:00;1.52;;;1.25;;
75526;SDS011;64107;49.248;7.006;2024-01-16T15:22:26;1.73;;;1.42;;
75526;SDS011;64107;49.248;7.006;2024-01-16T15:24:52;5.65;;;2.22;;
75526;SDS011;64107;49.248;7.006;2024-01-16T15:27:18;1.77;;;1.25;;
75526;SDS011;64107;49.248;7.006;2024-01-16T15:29:45;2.78;;;1.75;;
75526;SDS011;64107;49.248;7.006;2024-01-16T15:34:37;6.55;;;3.03;;
75526;SDS011;64107;49.248;7.006;2024-01-16T15:37:03;5.22;;;1.92;;
75526;SDS011;64107;49.248;7.006;2024-01-16T15:39:29;8.02;;;2.85;;
75526;SDS011;64107;49.248;7.006;2024-01-16T15:41:55;6.82;;;3.67;;